Terminal Aerodrome Forecast
Issued by NWS Jacksonville, FL

Home | Current Version | Previous Version | Text Only | Print | Product List | Glossary On
Versions: 1 2 3 4 5 6 7 8 9 10 11 12 13 14 15 16 17 18 19 20 21 22 23 24
000
FTUS42 KJAX 201100
TAFGNV
TAF
KGNV 201121Z 2012/2112 VRB03KT P6SM VCSH SCT004 OVC025
     FM202000 04006KT P6SM -SHRA OVC025
     FM210300 VRB02KT P6SM SCT030=

USA.gov is the U.S. government's official web portal to all federal, state and local government web resources and services.